This is the latest recevied weather packets stored in our database for station/object DG1GMY-13. If no packets are shown the sender has not sent any weather packets the latest 10 day(s).
| Time | Temp. | Humidity | Pressure | Rain* | Wind** | Luminosity | Snow |
|---|---|---|---|---|---|---|---|
| 1777389462 | 21.11° C | 28% | 1015.9 hPa | - | - | - | - |
| 1777387656 | 21.11° C | 29% | 1016.2 hPa | - | - | - | - |
| 1777385850 | 21.11° C | 30% | 1016.3 hPa | - | - | - | - |
| 1777384044 | 21.11° C | 31% | 1016.2 hPa | - | - | - | - |
| 1777382238 | 21.67° C | 30% | 1016.2 hPa | - | - | - | - |
| 1777380432 | 21.67° C | 32% | 1016.3 hPa | - | - | - | - |
| 1777378627 | 21.67° C | 32% | 1016.3 hPa | - | - | - | - |
| 1777376820 | 21.67° C | 33% | 1016.3 hPa | - | - | - | - |
| 1777375014 | 22.22° C | 27% | 1016.5 hPa | - | - | - | - |
| 1777373208 | 21.11° C | 28% | 1016.6 hPa | - | - | - | - |
| 1777371402 | 20° C | 35% | 1016.8 hPa | - | - | - | - |
| 1777369596 | 18.33° C | 41% | 1017.1 hPa | - | - | - | - |
| 1777367791 | 17.22° C | 45% | 1017.2 hPa | - | - | - | - |
| 1777365984 | 16.67° C | 45% | 1017.2 hPa | - | - | - | - |
| 1777364179 | 16.11° C | 52% | 1017.2 hPa | - | - | - | - |
| 1777362373 | 14.44° C | 55% | 1017.3 hPa | - | - | - | - |
| 1777360567 | 12.78° C | 59% | 1017.2 hPa | - | - | - | - |
| 1777358761 | 11.11° C | 68% | 1017.6 hPa | - | - | - | - |
| 1777356955 | 10° C | 68% | 1017.5 hPa | - | - | - | - |
| 1777355149 | 8.89° C | 70% | 1017.6 hPa | - | - | - | - |
| 1777353343 | 7.22° C | 76% | 1017.3 hPa | - | - | - | - |
| 1777351537 | 7.78° C | 72% | 1017.2 hPa | - | - | - | - |
| 1777349731 | 7.78° C | 71% | 1017.1 hPa | - | - | - | - |
| 1777347925 | 7.78° C | 70% | 1017.2 hPa | - | - | - | - |
| 1777346119 | 7.78° C | 70% | 1017.1 hPa | - | - | - | - |
* Rain since midnight (hover to see other rain measurements)
** Current wind speed in m/s (hover to see current wind gust speed)